Time;durP1;ratioP1;P1;durP2;ratioP2;P2;SDS_P1;SDS_P2;PMS_P1;PMS_P2;Temp;Humidity;BMP_temperature;BMP_pressure;BME280_temperature;BME280_humidity;BME280_pressure;Samples;Min_cycle;Max_cycle;Signal;HPM_P1;HPM_P2
2021/08/20 00:02:05;;;;;;;;;3.75;2.00;;;;;20.14;53.55;101295.84;5001933;28;46247;-75
2021/08/20 00:04:31;;;;;;;;;2.75;2.75;;;;;20.13;53.56;101297.69;5002355;28;45363;-75
2021/08/20 00:06:56;;;;;;;;;4.00;3.25;;;;;20.06;53.66;101288.19;5002193;28;45377;-75
2021/08/20 00:09:21;;;;;;;;;3.00;3.00;;;;;20.10;53.97;101295.19;5002145;28;45442;-75
2021/08/20 00:11:47;;;;;;;;;3.00;2.75;;;;;20.02;53.86;101283.09;5002019;28;46391;-75
2021/08/20 00:14:15;;;;;;;;;3.50;3.50;;;;;20.04;53.69;101297.41;5002102;28;45414;-75
2021/08/20 00:16:41;;;;;;;;;2.75;2.75;;;;;20.01;53.77;101292.19;5002072;28;45316;-75
2021/08/20 00:19:07;;;;;;;;;3.00;2.00;;;;;20.01;53.86;101300.31;5001928;28;45431;-75
2021/08/20 00:21:34;;;;;;;;;2.00;2.00;;;;;19.98;53.93;101294.13;5001861;28;45168;-75
2021/08/20 00:23:59;;;;;;;;;2.75;2.75;;;;;19.93;54.03;101284.53;5001978;28;45623;-75
2021/08/20 00:26:25;;;;;;;;;3.75;2.00;;;;;19.90;54.04;101287.44;5002052;28;45372;-75
2021/08/20 00:28:50;;;;;;;;;2.75;2.75;;;;;19.95;54.37;101296.16;5000541;28;46015;-75
2021/08/20 00:31:15;;;;;;;;;2.00;2.00;;;;;19.91;54.15;101289.16;5000411;28;48369;-75
2021/08/20 00:33:41;;;;;;;;;3.00;3.00;;;;;19.87;54.23;101280.38;5000247;28;45833;-75
2021/08/20 00:36:06;;;;;;;;;3.25;2.25;;;;;19.82;54.17;101276.22;5001924;28;45266;-75
2021/08/20 00:38:34;;;;;;;;;4.50;2.25;;;;;19.84;54.09;101285.13;5001470;28;45287;-75
2021/08/20 00:41:00;;;;;;;;;4.00;2.75;;;;;19.87;54.22;101283.06;5001479;28;46035;-75
2021/08/20 00:43:26;;;;;;;;;3.00;3.00;;;;;19.77;53.99;101271.94;5001870;28;45260;-75
2021/08/20 00:46:01;;;;;;;;;2.75;2.75;;;;;19.75;54.23;101271.19;5001686;28;45222;-75
2021/08/20 00:48:28;;;;;;;;;3.00;3.00;;;;;19.82;54.27;101287.91;5000107;28;46177;-75
2021/08/20 00:51:19;;;;;;;;;2.00;2.00;;;;;19.79;54.40;101285.41;5000043;28;48214;-75
2021/08/20 00:53:46;;;;;;;;;4.00;3.00;;;;;19.81;54.38;101286.16;5001477;28;45454;-75
2021/08/20 00:56:12;;;;;;;;;3.00;3.00;;;;;19.71;54.35;101266.91;5001631;28;45275;-75
2021/08/20 00:58:38;;;;;;;;;3.00;3.00;;;;;19.68;54.63;101261.66;5001162;28;45456;-75
2021/08/20 01:01:04;;;;;;;;;3.00;3.00;;;;;19.76;54.65;101275.63;5001464;28;45550;-75
2021/08/20 01:03:30;;;;;;;;;3.00;3.00;;;;;19.71;54.47;101266.91;5001008;28;45640;-75
2021/08/20 01:05:56;;;;;;;;;2.00;2.00;;;;;19.76;54.56;101275.63;5001688;28;45395;-75
2021/08/20 01:08:26;;;;;;;;;4.75;3.00;;;;;19.71;54.77;101264.19;5001019;28;45259;-75
2021/08/20 01:10:54;;;;;;;;;3.75;3.00;;;;;19.75;54.39;101270.31;5001300;28;46114;-75
2021/08/20 01:13:19;;;;;;;;;3.00;3.00;;;;;19.74;54.67;101265.81;5001139;28;45610;-75
2021/08/20 01:15:46;;;;;;;;;2.00;2.00;;;;;19.74;54.54;101266.69;5000102;28;45318;-75
2021/08/20 01:18:20;;;;;;;;;3.50;3.50;;;;;19.56;54.55;101238.03;5000729;28;45355;-75
2021/08/20 01:20:46;;;;;;;;;2.00;2.00;;;;;19.62;54.63;101252.06;5001242;28;45686;-75
2021/08/20 01:23:11;;;;;;;;;2.75;1.75;;;;;19.70;54.71;101264.28;5000983;28;45319;-75
2021/08/20 01:25:36;;;;;;;;;2.00;2.00;;;;;19.71;54.69;101266.00;5001157;28;45411;-74
2021/08/20 01:28:09;;;;;;;;;3.00;3.00;;;;;19.71;54.75;101266.91;5000833;28;45565;-75
2021/08/20 01:30:35;;;;;;;;;3.75;3.75;;;;;19.69;54.67;101257.97;5000917;28;45278;-75
2021/08/20 01:33:00;;;;;;;;;2.50;2.50;;;;;19.56;54.62;101241.66;4999128;28;45939;-75
2021/08/20 01:35:26;;;;;;;;;3.00;3.00;;;;;19.59;54.65;101249.56;5001159;28;45315;-75
2021/08/20 01:37:51;;;;;;;;;4.00;3.00;;;;;19.61;54.56;101255.78;5000668;28;45446;-75
2021/08/20 01:40:16;;;;;;;;;4.50;3.50;;;;;19.67;54.67;101261.75;5000820;28;45410;-75
2021/08/20 01:42:42;;;;;;;;;1.75;1.75;;;;;19.65;54.94;101251.03;4999360;28;45940;-75
2021/08/20 01:45:08;;;;;;;;;2.00;2.00;;;;;19.69;54.84;101257.13;5001070;28;45434;-75
2021/08/20 01:47:33;;;;;;;;;4.75;3.50;;;;;19.65;54.86;101252.88;5000273;28;45502;-75
2021/08/20 01:49:58;;;;;;;;;2.50;2.50;;;;;19.66;54.98;101251.88;4999681;28;45333;-75
2021/08/20 01:52:24;;;;;;;;;2.50;2.50;;;;;19.59;55.06;101246.84;4999200;28;45251;-75
2021/08/20 01:54:49;;;;;;;;;2.00;2.00;;;;;19.55;55.08;101230.91;5001043;28;45776;-75
2021/08/20 01:57:14;;;;;;;;;3.75;3.75;;;;;19.63;55.05;101242.13;5000171;28;45581;-74
2021/08/20 01:59:42;;;;;;;;;3.25;3.25;;;;;19.70;55.01;101258.88;5000551;28;47740;-75
2021/08/20 02:02:07;;;;;;;;;4.25;3.75;;;;;19.71;54.94;101249.75;4999994;28;45491;-75
2021/08/20 02:04:33;;;;;;;;;2.00;2.00;;;;;19.71;55.29;101249.75;5000514;28;45403;-75
2021/08/20 02:06:59;;;;;;;;;3.00;3.00;;;;;19.69;54.78;101243.56;5000314;28;45482;-74
2021/08/20 02:09:24;;;;;;;;;2.25;2.25;;;;;19.52;54.99;101207.59;5000367;28;46109;-75
2021/08/20 02:11:50;;;;;;;;;3.00;2.00;;;;;19.63;54.62;101226.75;5000237;28;45249;-74
2021/08/20 02:14:16;;;;;;;;;2.75;2.75;;;;;19.69;55.03;101233.59;4999442;28;45409;-75
2021/08/20 02:16:41;;;;;;;;;2.75;2.75;;;;;19.71;55.04;101228.09;5000162;28;45394;-74
2021/08/20 02:19:07;;;;;;;;;3.75;3.00;;;;;19.66;55.23;101225.66;4998657;28;47023;-75
2021/08/20 02:21:33;;;;;;;;;5.00;3.00;;;;;19.59;54.95;101214.34;5000043;28;45412;-75
2021/08/20 02:23:58;;;;;;;;;2.50;2.00;;;;;19.66;55.34;101222.97;5000382;28;45907;-74
2021/08/20 02:26:23;;;;;;;;;4.00;3.50;;;;;19.54;55.29;101205.66;5000227;28;45486;-75
2021/08/20 02:28:49;;;;;;;;;3.75;3.75;;;;;19.66;54.96;101235.63;4999797;28;46273;-74
2021/08/20 02:31:14;;;;;;;;;2.00;2.00;;;;;19.62;55.15;101221.44;5000156;28;45157;-75
2021/08/20 02:33:44;;;;;;;;;3.50;2.00;;;;;19.57;55.06;101221.72;4999789;28;45403;-74
2021/08/20 02:36:11;;;;;;;;;3.25;1.50;;;;;19.72;55.31;101243.38;5000060;28;45388;-75
2021/08/20 02:38:37;;;;;;;;;3.00;2.00;;;;;19.72;55.40;101241.53;4999897;28;47048;-75
2021/08/20 02:41:02;;;;;;;;;3.00;3.00;;;;;19.52;55.34;101195.91;4998646;28;45430;-75
2021/08/20 02:43:27;;;;;;;;;3.00;3.00;;;;;19.67;55.26;101229.25;4998711;28;45284;-75
2021/08/20 02:45:53;;;;;;;;;3.00;3.00;;;;;19.69;55.37;101227.31;4998692;28;45347;-75
2021/08/20 02:48:19;;;;;;;;;1.25;1.25;;;;;19.72;55.15;101229.84;4999451;28;46715;-75
2021/08/20 02:50:44;;;;;;;;;2.25;2.25;;;;;19.73;55.61;101231.56;4998520;28;45379;-75
2021/08/20 02:53:09;;;;;;;;;2.00;2.00;;;;;19.78;55.48;101237.63;5000092;28;45228;-75
2021/08/20 02:55:35;;;;;;;;;2.00;2.00;;;;;19.69;55.82;101230.91;4999571;28;45224;-75
2021/08/20 02:58:00;;;;;;;;;3.00;2.50;;;;;19.73;55.67;101231.56;4999806;28;46880;-75
2021/08/20 03:00:26;;;;;;;;;3.25;3.25;;;;;19.81;55.88;101240.13;4999200;28;45347;-75
2021/08/20 03:02:51;;;;;;;;;2.00;2.00;;;;;19.73;55.71;101227.03;5003093;28;45292;-74
2021/08/20 03:05:17;;;;;;;;;2.00;2.00;;;;;19.67;55.43;101222.00;5003067;28;45510;-75
2021/08/20 03:07:42;;;;;;;;;3.00;3.00;;;;;19.84;55.68;101236.34;5002990;28;45979;-75
2021/08/20 03:10:09;;;;;;;;;2.00;2.00;;;;;19.59;55.75;101192.69;5002960;28;45178;-75
2021/08/20 03:12:34;;;;;;;;;4.00;3.00;;;;;19.85;55.81;101235.41;5003365;28;45367;-75
2021/08/20 03:15:00;;;;;;;;;1.75;1.75;;;;;19.86;55.51;101243.41;5002919;28;45911;-74
2021/08/20 03:17:25;;;;;;;;;3.00;2.75;;;;;19.86;55.67;101237.97;5001433;28;48263;-74
2021/08/20 03:19:50;;;;;;;;;2.50;2.50;;;;;19.78;55.74;101227.66;5002884;28;45298;-74
2021/08/20 03:22:16;;;;;;;;;2.75;2.75;;;;;19.84;56.01;101242.63;5003123;28;45423;-75
2021/08/20 03:24:41;;;;;;;;;2.00;2.00;;;;;19.87;55.78;101236.16;5001588;28;45569;-75
2021/08/20 03:27:06;;;;;;;;;3.00;3.00;;;;;19.88;55.77;101235.19;5002697;28;46092;-75
2021/08/20 03:29:32;;;;;;;;;2.50;2.50;;;;;19.88;55.44;101235.19;5002851;28;45573;-74
2021/08/20 03:31:57;;;;;;;;;2.00;2.00;;;;;19.86;55.64;101220.88;5002804;28;45407;-75
2021/08/20 03:34:23;;;;;;;;;4.00;2.75;;;;;19.81;55.75;101215.72;5002447;28;46478;-75
2021/08/20 03:36:48;;;;;;;;;2.50;2.50;;;;;19.78;55.79;101215.97;5002584;28;46268;-75
2021/08/20 03:39:13;;;;;;;;;4.25;3.00;;;;;19.86;55.56;101229.00;5002476;28;45296;-75
2021/08/20 03:41:39;;;;;;;;;4.00;4.00;;;;;19.83;55.78;101232.78;5002924;28;45256;-74
2021/08/20 03:44:04;;;;;;;;;4.00;3.75;;;;;19.85;55.87;101229.97;5002605;28;45311;-75
2021/08/20 03:46:29;;;;;;;;;3.00;2.00;;;;;19.84;56.15;101239.94;5002514;28;45224;-75
2021/08/20 03:48:55;;;;;;;;;5.50;4.00;;;;;19.80;55.92;101241.09;5001924;28;45305;-74
2021/08/20 03:51:20;;;;;;;;;3.00;3.00;;;;;19.80;55.95;101232.97;5001408;28;45257;-74
2021/08/20 03:53:46;;;;;;;;;4.75;4.75;;;;;19.67;55.85;101207.59;5002476;28;45272;-75
2021/08/20 03:56:11;;;;;;;;;1.50;1.50;;;;;19.84;55.87;101234.50;5002265;28;47315;-75
2021/08/20 03:58:36;;;;;;;;;3.00;3.00;;;;;19.88;55.97;101246.00;5000906;28;45428;-75
2021/08/20 04:01:08;;;;;;;;;2.50;2.50;;;;;19.87;55.81;101236.16;5002620;28;45399;-74
2021/08/20 04:03:34;;;;;;;;;2.50;2.50;;;;;19.84;55.67;101244.47;5000627;28;45862;-74
2021/08/20 04:05:59;;;;;;;;;3.25;3.00;;;;;19.86;55.69;101250.66;5002176;28;47033;-75
2021/08/20 04:08:24;;;;;;;;;3.00;3.00;;;;;19.85;56.33;101244.38;5002020;28;45155;-75
2021/08/20 04:10:50;;;;;;;;;2.00;2.00;;;;;19.87;56.05;101249.72;5002432;28;45248;-74
2021/08/20 04:13:15;;;;;;;;;4.75;3.25;;;;;19.87;56.17;101245.16;5001396;28;45513;-74
2021/08/20 04:15:41;;;;;;;;;2.00;2.00;;;;;19.86;56.17;101248.81;5002214;28;45268;-74
2021/08/20 04:18:06;;;;;;;;;3.75;3.00;;;;;19.88;55.94;101249.63;5001773;28;45169;-75
2021/08/20 04:20:32;;;;;;;;;2.75;2.75;;;;;19.86;56.26;101254.22;5001012;28;45710;-75
2021/08/20 04:22:59;;;;;;;;;3.25;3.25;;;;;19.90;55.98;101253.09;5001956;28;45340;-75
2021/08/20 04:25:26;;;;;;;;;2.75;2.75;;;;;19.87;56.26;101249.72;5002129;28;46146;-74
2021/08/20 04:27:51;;;;;;;;;2.75;2.75;;;;;19.86;56.17;101245.25;5000337;28;45443;-74
2021/08/20 04:30:22;;;;;;;;;4.75;4.75;;;;;19.92;56.24;101264.69;5002090;28;45281;-75
2021/08/20 04:32:48;;;;;;;;;2.25;2.25;;;;;19.91;56.13;101265.69;5001323;28;45221;-74
2021/08/20 04:35:13;;;;;;;;;4.00;3.00;;;;;19.88;56.29;101257.75;5000715;28;47323;-75
2021/08/20 04:37:39;;;;;;;;;2.00;2.00;;;;;19.94;56.12;101264.59;5001962;28;45450;-74
2021/08/20 04:40:06;;;;;;;;;4.00;3.00;;;;;19.89;55.92;101253.19;5001990;28;45429;-74
2021/08/20 04:42:31;;;;;;;;;3.00;3.00;;;;;19.94;56.20;101262.75;5001516;28;45320;-74
2021/08/20 04:44:56;;;;;;;;;2.00;2.00;;;;;19.91;56.45;101264.78;5001709;28;45433;-75
2021/08/20 04:47:22;;;;;;;;;4.50;4.25;;;;;19.93;56.23;101265.56;5001270;28;45445;-75
2021/08/20 04:49:47;;;;;;;;;3.00;3.00;;;;;19.90;56.29;101260.34;5001672;28;45619;-74
2021/08/20 04:52:14;;;;;;;;;6.50;3.75;;;;;19.88;56.22;101257.75;5001340;28;45354;-75
2021/08/20 04:54:40;;;;;;;;;3.00;3.00;;;;;19.89;56.21;101262.16;5000385;28;45367;-74
2021/08/20 04:57:06;;;;;;;;;4.00;4.00;;;;;19.87;55.98;101255.13;5001346;28;45540;-75
2021/08/20 04:59:31;;;;;;;;;3.50;3.50;;;;;19.88;55.94;101263.16;5001781;28;45287;-75
2021/08/20 05:01:57;;;;;;;;;2.75;2.75;;;;;19.87;56.48;101255.13;5001185;28;45453;-75
2021/08/20 05:04:22;;;;;;;;;4.00;4.00;;;;;19.88;56.57;101256.84;5001072;28;45242;-75
2021/08/20 05:06:48;;;;;;;;;5.25;4.25;;;;;19.96;56.63;101274.38;5001173;28;45212;-75
2021/08/20 05:09:13;;;;;;;;;4.25;3.00;;;;;19.93;56.61;101269.16;5001276;28;45761;-75
2021/08/20 05:11:39;;;;;;;;;4.25;3.75;;;;;19.95;56.75;101272.63;5001386;28;45367;-75
2021/08/20 05:14:04;;;;;;;;;4.00;4.00;;;;;19.96;56.57;101270.78;5001099;28;45553;-75
2021/08/20 05:16:30;;;;;;;;;2.50;2.50;;;;;19.94;56.71;101272.72;4999865;28;45449;-75
2021/08/20 05:18:56;;;;;;;;;3.25;3.25;;;;;19.93;56.61;101277.28;5001010;28;45432;-75
2021/08/20 05:21:24;;;;;;;;;4.25;4.25;;;;;19.90;56.50;101276.63;5000997;28;45425;-74
2021/08/20 05:23:49;;;;;;;;;5.00;4.00;;;;;19.90;56.41;101271.19;4999951;28;45344;-74
2021/08/20 05:26:15;;;;;;;;;3.50;3.50;;;;;19.96;56.57;101281.63;4999559;28;45418;-75
2021/08/20 05:28:41;;;;;;;;;3.50;3.50;;;;;19.91;56.15;101270.22;5001009;28;45517;-74
2021/08/20 05:31:06;;;;;;;;;4.25;3.25;;;;;19.90;56.76;101276.63;5000902;28;45414;-74
2021/08/20 05:33:33;;;;;;;;;4.25;3.25;;;;;19.94;56.60;101286.28;5000404;28;45323;-75
2021/08/20 05:35:58;;;;;;;;;3.75;3.00;;;;;19.83;56.81;101268.00;5000893;28;45317;-75
2021/08/20 05:38:23;;;;;;;;;5.00;4.50;;;;;19.92;56.53;101285.50;5001109;28;45461;-75
2021/08/20 05:40:49;;;;;;;;;6.00;6.00;;;;;19.85;56.61;101257.06;5000619;28;45454;-75
2021/08/20 05:43:14;;;;;;;;;4.25;3.75;;;;;19.94;56.83;101280.84;5000745;28;46274;-75
2021/08/20 05:45:40;;;;;;;;;6.00;5.00;;;;;19.93;56.72;101287.22;4999377;28;45691;-75
2021/08/20 05:48:07;;;;;;;;;5.75;4.00;;;;;19.88;56.88;101275.81;5000759;28;45397;-75
2021/08/20 05:50:33;;;;;;;;;3.50;3.50;;;;;19.98;56.95;101288.69;4999417;28;45371;-75
2021/08/20 05:52:58;;;;;;;;;5.00;3.25;;;;;19.92;56.47;101288.22;4999230;28;47401;-75
2021/08/20 05:55:25;;;;;;;;;4.50;3.00;;;;;19.97;56.65;101288.78;5000588;28;45420;-75
2021/08/20 05:57:51;;;;;;;;;3.75;3.75;;;;;19.90;56.75;101272.06;5000630;28;45327;-75
2021/08/20 06:00:17;;;;;;;;;3.50;3.50;;;;;19.88;56.81;101278.53;4999248;28;45512;-75
2021/08/20 06:02:42;;;;;;;;;5.00;4.00;;;;;19.88;56.62;101279.41;5000080;28;46417;-75
2021/08/20 06:05:08;;;;;;;;;4.00;4.00;;;;;19.93;56.75;101284.53;4998036;28;45338;-75
2021/08/20 06:07:33;;;;;;;;;4.00;4.00;;;;;19.97;56.92;101292.38;5000541;28;45236;-75
2021/08/20 06:09:59;;;;;;;;;4.00;4.00;;;;;19.99;56.83;101290.41;5000148;28;45719;-75
2021/08/20 06:12:24;;;;;;;;;5.00;5.00;;;;;19.96;56.97;101289.75;5000602;28;46234;-75
2021/08/20 06:14:50;;;;;;;;;3.75;3.50;;;;;19.89;57.00;101281.13;4998881;28;45403;-74
2021/08/20 06:17:15;;;;;;;;;3.25;3.00;;;;;19.87;56.73;101280.38;5000078;28;45365;-75
2021/08/20 06:19:40;;;;;;;;;4.50;4.50;;;;;19.95;56.74;101288.88;5000224;28;45287;-74
2021/08/20 06:22:06;;;;;;;;;5.00;4.75;;;;;19.92;56.92;101288.22;4995488;28;45784;-75
2021/08/20 06:24:31;;;;;;;;;3.25;3.25;;;;;19.96;56.85;101289.75;4995157;28;45394;-75
2021/08/20 06:26:57;;;;;;;;;5.00;3.50;;;;;19.94;57.05;101295.25;4998964;28;45312;-74
2021/08/20 06:29:22;;;;;;;;;4.75;3.25;;;;;19.98;56.83;101290.56;4999843;28;45414;-74
2021/08/20 06:31:49;;;;;;;;;4.00;4.00;;;;;19.91;56.77;101290.06;4999836;28;46604;-75
2021/08/20 06:34:15;;;;;;;;;3.25;3.25;;;;;19.95;56.87;101296.16;5000068;28;45788;-75
2021/08/20 06:36:41;;;;;;;;;5.50;5.00;;;;;19.99;57.00;101305.81;5002902;28;45383;-75
2021/08/20 06:39:06;;;;;;;;;4.50;4.50;;;;;19.94;57.18;101295.25;5003616;28;45328;-75
2021/08/20 06:41:32;;;;;;;;;4.50;4.00;;;;;20.00;56.96;101304.88;5003464;28;46241;-74
2021/08/20 06:43:57;;;;;;;;;5.00;5.00;;;;;20.03;57.20;101306.50;5003444;28;45442;-75
2021/08/20 06:46:23;;;;;;;;;3.75;3.75;;;;;20.03;57.20;101314.63;5003699;28;45486;-74
2021/08/20 06:48:48;;;;;;;;;5.75;5.00;;;;;19.89;57.28;101283.00;5001773;28;45193;-74
2021/08/20 06:51:15;;;;;;;;;4.00;4.00;;;;;19.96;57.25;101292.47;5003588;28;45561;-76
2021/08/20 06:53:40;;;;;;;;;4.00;3.75;;;;;20.05;57.08;101304.56;5003309;28;45677;-77
2021/08/20 06:56:06;;;;;;;;;4.00;3.75;;;;;20.02;57.19;101299.34;5003354;28;45383;-76
2021/08/20 06:58:32;;;;;;;;;6.00;4.75;;;;;20.03;57.49;101299.25;5003195;28;45368;-77
2021/08/20 07:00:57;;;;;;;;;3.75;3.75;;;;;19.96;57.53;101287.94;5001876;28;46161;-77
2021/08/20 07:03:23;;;;;;;;;4.50;4.50;;;;;20.04;57.20;101292.84;5002856;28;45426;-76
2021/08/20 07:05:48;;;;;;;;;6.00;5.00;;;;;20.07;57.36;101305.34;5003365;28;45347;-77
2021/08/20 07:08:13;;;;;;;;;4.00;4.00;;;;;20.02;57.69;101297.50;5003002;28;45346;-77
2021/08/20 07:10:39;;;;;;;;;4.50;3.75;;;;;20.06;57.64;101303.59;5003286;28;45316;-77
2021/08/20 07:13:05;;;;;;;;;4.50;4.50;;;;;20.01;57.50;101297.59;5003051;28;45190;-77
2021/08/20 07:15:30;;;;;;;;;5.00;4.25;;;;;20.08;57.47;101307.06;5003225;28;45304;-77
2021/08/20 07:17:56;;;;;;;;;4.75;4.75;;;;;20.07;57.54;101303.50;5002713;28;45296;-77
2021/08/20 07:20:21;;;;;;;;;6.00;6.00;;;;;20.11;57.50;101318.63;5002989;28;46181;-76
2021/08/20 07:22:46;;;;;;;;;9.50;6.00;;;;;20.11;57.41;101315.91;5002810;28;45303;-76
2021/08/20 07:25:12;;;;;;;;;5.00;5.00;;;;;20.06;57.40;101314.44;5003156;28;45252;-77
2021/08/20 07:27:38;;;;;;;;;4.00;4.00;;;;;20.12;57.50;101316.75;5002716;28;45252;-76
2021/08/20 07:30:05;;;;;;;;;6.75;6.00;;;;;20.02;57.46;101296.63;5002678;28;46378;-77
2021/08/20 07:32:30;;;;;;;;;5.00;5.00;;;;;20.13;57.04;101316.66;5002305;28;45567;-77
2021/08/20 07:34:55;;;;;;;;;5.75;5.75;;;;;20.09;57.24;101308.81;5002910;28;45296;-76
2021/08/20 07:37:21;;;;;;;;;5.75;5.00;;;;;20.16;57.72;101321.91;5002622;28;45287;-77
2021/08/20 07:39:46;;;;;;;;;6.00;4.50;;;;;20.09;57.08;101311.53;5002859;28;45477;-77
2021/08/20 07:42:11;;;;;;;;;6.00;6.00;;;;;20.19;57.34;101326.25;5001087;28;45450;-77
2021/08/20 07:44:37;;;;;;;;;6.00;6.00;;;;;20.20;57.37;101332.50;5002961;28;45415;-77
2021/08/20 07:47:03;;;;;;;;;7.25;7.25;;;;;20.15;57.22;101328.28;5001241;28;45568;-77
2021/08/20 07:49:29;;;;;;;;;6.25;5.50;;;;;20.11;57.44;101321.31;5002209;28;46565;-77
2021/08/20 07:51:56;;;;;;;;;5.75;5.25;;;;;20.21;56.87;101337.84;5002515;28;45240;-77
2021/08/20 07:54:22;;;;;;;;;5.50;5.50;;;;;20.21;57.25;101336.97;5001349;28;45239;-76
2021/08/20 07:56:48;;;;;;;;;6.00;6.00;;;;;20.21;57.31;101334.28;5002209;28;45427;-77
2021/08/20 07:59:13;;;;;;;;;6.00;4.00;;;;;20.25;57.26;101338.53;5002372;28;46506;-77
2021/08/20 08:01:39;;;;;;;;;6.50;6.00;;;;;20.13;57.08;101316.66;5001957;28;45219;-77
2021/08/20 08:04:04;;;;;;;;;6.50;6.25;;;;;20.18;57.65;101332.66;5001179;28;45561;-77
2021/08/20 08:06:29;;;;;;;;;5.25;5.25;;;;;20.25;57.16;101344.81;5000764;28;45383;-77
2021/08/20 08:08:55;;;;;;;;;8.00;6.00;;;;;20.25;57.40;101341.25;5002191;28;46281;-77
2021/08/20 08:11:20;;;;;;;;;6.75;6.00;;;;;20.29;57.29;101349.06;5002153;28;45414;-77
2021/08/20 08:13:46;;;;;;;;;6.00;5.50;;;;;20.24;57.70;101331.38;5002272;28;45359;-77
2021/08/20 08:16:12;;;;;;;;;8.50;7.00;;;;;20.21;57.54;101326.13;5002230;28;45679;-77
2021/08/20 08:18:37;;;;;;;;;5.50;4.50;;;;;20.25;57.61;101335.84;5001640;28;46140;-77
2021/08/20 08:21:03;;;;;;;;;7.50;7.50;;;;;20.32;57.54;101348.88;5002083;28;45404;-77
2021/08/20 08:23:29;;;;;;;;;6.25;5.50;;;;;20.21;57.17;101329.72;5000806;28;45296;-77
2021/08/20 08:25:54;;;;;;;;;4.50;4.50;;;;;20.20;57.63;101328.00;5001971;28;45454;-77
2021/08/20 08:28:21;;;;;;;;;6.75;5.50;;;;;20.26;57.49;101342.97;5000425;28;47494;-77
2021/08/20 08:30:50;;;;;;;;;7.50;6.00;;;;;20.34;57.68;101357.78;5001728;28;45369;-77
2021/08/20 08:33:17;;;;;;;;;7.25;5.75;;;;;20.23;57.53;101344.06;5001544;28;45441;-77
2021/08/20 08:35:43;;;;;;;;;5.00;5.00;;;;;20.35;57.84;101362.25;5001908;28;45252;-77
2021/08/20 08:38:13;;;;;;;;;7.25;6.25;;;;;20.38;57.75;101365.72;5001749;28;46118;-77
2021/08/20 08:40:42;;;;;;;;;6.00;6.00;;;;;20.39;57.50;101364.75;5001691;28;45618;-77
2021/08/20 08:43:08;;;;;;;;;7.75;6.75;;;;;20.38;57.19;101363.00;5001761;28;45387;-77
2021/08/20 08:45:35;;;;;;;;;5.25;5.25;;;;;20.41;57.31;101368.25;5001601;28;45458;-75
2021/08/20 08:48:02;;;;;;;;;5.25;5.25;;;;;20.44;57.78;101373.47;5001146;28;45365;-74
2021/08/20 08:50:29;;;;;;;;;5.00;5.00;;;;;20.33;57.50;101353.34;5001487;28;45634;-75
2021/08/20 08:52:54;;;;;;;;;4.25;4.25;;;;;20.38;57.61;101357.59;5001641;28;45257;-74
2021/08/20 08:55:19;;;;;;;;;6.00;5.00;;;;;20.37;57.14;101356.72;5001379;28;45437;-75
2021/08/20 08:57:45;;;;;;;;;4.00;4.00;;;;;20.42;57.67;101353.72;5001130;28;46498;-75
2021/08/20 09:00:11;;;;;;;;;6.50;5.50;;;;;20.39;57.35;101346.66;5001215;28;45307;-75
2021/08/20 09:02:37;;;;;;;;;5.75;5.75;;;;;20.48;57.59;101365.06;5001379;28;45395;-75
2021/08/20 09:05:05;;;;;;;;;5.00;5.00;;;;;20.41;57.17;101350.13;5001460;28;45300;-75
2021/08/20 09:07:34;;;;;;;;;5.75;5.75;;;;;20.47;57.76;101352.44;5001194;28;45272;-75
2021/08/20 09:10:10;;;;;;;;;7.50;5.50;;;;;20.58;58.04;101365.34;5001326;28;45415;-76
2021/08/20 09:12:35;;;;;;;;;5.50;5.50;;;;;20.50;57.43;101351.41;5001555;28;45315;-75
2021/08/20 09:15:01;;;;;;;;;6.00;6.00;;;;;20.61;57.67;101370.53;4999799;28;45393;-76
2021/08/20 09:17:32;;;;;;;;;5.75;4.00;;;;;20.62;57.52;101361.44;4999591;28;46165;-76
2021/08/20 09:20:24;;;;;;;;;7.00;7.00;;;;;20.65;57.28;101363.13;4999993;28;45462;-75
2021/08/20 09:22:52;;;;;;;;;6.75;5.00;;;;;20.64;56.90;101355.94;4999068;28;45557;-76
2021/08/20 09:25:44;;;;;;;;;5.50;5.00;;;;;20.70;57.17;101366.41;4999904;28;45255;-75
2021/08/20 09:28:24;;;;;;;;;4.50;4.50;;;;;20.68;57.54;101349.34;5000748;28;45540;-75
2021/08/20 09:30:55;;;;;;;;;6.25;5.00;;;;;20.77;57.41;101364.16;5000863;28;45287;-76
2021/08/20 09:33:24;;;;;;;;;8.00;6.50;;;;;20.70;57.64;101340.16;5000872;28;45258;-76
2021/08/20 09:36:07;;;;;;;;;5.25;4.50;;;;;20.82;57.79;101351.16;5001063;28;45404;-76
2021/08/20 09:38:36;;;;;;;;;4.75;4.00;;;;;20.76;57.25;101341.56;5000779;28;45372;-76
2021/08/20 09:41:06;;;;;;;;;6.00;6.00;;;;;20.67;57.26;101317.78;5000946;28;45308;-76
2021/08/20 09:43:35;;;;;;;;;5.50;5.50;;;;;20.78;57.53;101336.06;5000966;28;45371;-75
2021/08/20 09:46:03;;;;;;;;;5.25;5.00;;;;;20.90;57.19;101365.97;5000672;28;45353;-76
2021/08/20 09:48:42;;;;;;;;;7.00;5.50;;;;;20.92;56.92;101361.28;5000276;28;45892;-76
2021/08/20 09:51:09;;;;;;;;;6.50;6.50;;;;;20.88;57.18;101342.59;5000621;28;45470;-76
2021/08/20 09:53:35;;;;;;;;;3.00;3.00;;;;;20.96;56.52;101361.09;5000906;28;45528;-76
2021/08/20 09:56:05;;;;;;;;;7.00;7.00;;;;;20.99;56.92;101360.91;5000272;28;45351;-76
2021/08/20 09:58:32;;;;;;;;;5.25;4.75;;;;;20.90;56.53;101348.81;5000402;28;45438;-75
2021/08/20 10:01:01;;;;;;;;;5.00;5.00;;;;;21.01;56.45;101367.09;5000454;28;45431;-75
2021/08/20 10:03:28;;;;;;;;;5.75;5.75;;;;;21.02;56.79;101361.56;4998954;28;45328;-76
2021/08/20 10:05:54;;;;;;;;;7.00;7.00;;;;;21.00;56.61;101349.06;5000573;28;45507;-76
2021/08/20 10:08:20;;;;;;;;;5.75;5.00;;;;;21.04;57.47;101356.91;4998896;28;47293;-76
2021/08/20 10:10:46;;;;;;;;;6.75;6.75;;;;;21.14;57.04;101362.59;4999649;28;45184;-75
2021/08/20 10:13:16;;;;;;;;;6.25;5.25;;;;;21.12;57.16;101353.69;5000410;28;45455;-76
2021/08/20 10:15:43;;;;;;;;;6.50;5.50;;;;;21.15;56.64;101364.34;5000447;28;45449;-76
2021/08/20 10:18:09;;;;;;;;;6.00;6.00;;;;;21.14;57.00;101353.56;4998579;28;45528;-76
2021/08/20 10:20:35;;;;;;;;;6.00;6.00;;;;;21.18;56.51;101358.69;5000362;28;45281;-76
2021/08/20 10:23:02;;;;;;;;;5.50;5.50;;;;;21.12;56.52;101345.53;5000435;28;45232;-76
2021/08/20 10:25:28;;;;;;;;;6.00;6.00;;;;;21.20;56.83;101350.44;4979450;28;45522;-76
2021/08/20 10:27:55;;;;;;;;;6.50;6.50;;;;;21.23;56.81;101352.94;4995518;28;46366;-76
2021/08/20 10:30:21;;;;;;;;;4.75;4.75;;;;;21.37;55.98;101362.88;5000120;28;45445;-76
2021/08/20 10:33:01;;;;;;;;;4.25;4.25;;;;;21.34;56.27;101355.81;4998564;28;45349;-76
2021/08/20 10:35:56;;;;;;;;;3.00;3.00;;;;;21.44;55.73;101372.34;5000169;28;45391;-76
2021/08/20 10:38:31;;;;;;;;;6.75;6.75;;;;;21.43;56.32;101359.72;4999938;28;45399;-76
2021/08/20 10:41:07;;;;;;;;;6.25;5.25;;;;;21.51;55.96;101370.97;4999882;28;45524;-76
2021/08/20 10:43:55;;;;;;;;;6.00;5.00;;;;;21.55;55.86;101369.81;5000119;28;45423;-76
2021/08/20 10:46:32;;;;;;;;;6.25;5.25;;;;;21.60;55.51;101362.22;4999802;28;45499;-76
2021/08/20 10:49:10;;;;;;;;;5.00;5.00;;;;;21.64;55.69;101362.84;4999783;28;46126;-76
2021/08/20 10:51:48;;;;;;;;;7.00;4.25;;;;;21.66;55.19;101347.31;4999875;28;45319;-76
2021/08/20 10:54:17;;;;;;;;;5.50;5.50;;;;;21.62;54.98;101340.38;4999910;28;45177;-76
2021/08/20 10:56:43;;;;;;;;;4.75;4.25;;;;;21.70;54.79;101348.84;4999713;28;45390;-76
2021/08/20 10:59:29;;;;;;;;;3.50;3.50;;;;;21.70;54.00;101348.84;4999705;28;45312;-78
2021/08/20 11:02:20;;;;;;;;;3.00;3.00;;;;;21.79;53.58;101358.22;4999466;28;45418;-79
2021/08/20 11:05:09;;;;;;;;;2.00;2.00;;;;;21.83;53.82;101352.47;4999761;28;45396;-76
2021/08/20 11:07:34;;;;;;;;;3.75;2.75;;;;;21.88;52.93;101356.69;4998599;28;45468;-77
2021/08/20 11:10:01;;;;;;;;;2.75;2.75;;;;;21.76;53.30;101325.81;4998120;28;46982;-76
2021/08/20 11:12:39;;;;;;;;;3.00;3.00;;;;;21.91;53.51;101348.31;4999721;28;45375;-77
2021/08/20 11:18:05;;;;;;;;;3.00;3.00;;;;;22.00;53.79;101351.25;4999244;28;45239;-76
2021/08/20 11:20:34;;;;;;;;;3.25;3.25;;;;;22.04;53.33;101357.34;4999539;28;45184;-77
2021/08/20 11:23:05;;;;;;;;;3.00;3.00;;;;;22.08;52.51;101350.69;5002391;28;45552;-77
2021/08/20 11:25:39;;;;;;;;;3.50;3.50;;;;;22.12;53.33;101349.50;5002981;28;45240;-77
2021/08/20 11:28:06;;;;;;;;;2.75;2.75;;;;;22.09;52.97;101341.56;5002647;28;45306;-76